createdAt,value
2017-08-31T00:00:36.794Z,21.71
2017-08-31T00:01:46.825Z,21.67
2017-08-31T00:02:57.172Z,21.7
2017-08-31T00:04:07.541Z,21.7
2017-08-31T00:05:17.883Z,21.64
2017-08-31T00:06:28.220Z,21.53
2017-08-31T00:07:39.866Z,21.61
2017-08-31T00:08:50.242Z,21.61
2017-08-31T00:10:00.262Z,21.56
2017-08-31T00:11:10.338Z,21.56
2017-08-31T00:12:20.053Z,21.62
2017-08-31T00:13:30.078Z,21.59
2017-08-31T00:14:40.425Z,21.58
2017-08-31T00:15:50.772Z,21.48
2017-08-31T00:17:01.115Z,21.59
2017-08-31T00:18:11.471Z,21.58
2017-08-31T00:19:21.849Z,21.59
2017-08-31T00:20:32.179Z,21.53
2017-08-31T00:21:42.517Z,21.55
2017-08-31T00:22:52.538Z,21.48
2017-08-31T00:24:02.885Z,21.43
2017-08-31T00:25:13.271Z,21.46
2017-08-31T00:26:23.671Z,21.41
2017-08-31T00:27:33.704Z,21.41
2017-08-31T00:28:44.129Z,21.41
2017-08-31T00:29:54.478Z,21.41
2017-08-31T00:31:04.807Z,21.4
2017-08-31T00:32:15.155Z,21.43
2017-08-31T00:33:25.499Z,21.37
2017-08-31T00:34:35.891Z,21.41
2017-08-31T00:35:45.910Z,21.38
2017-08-31T00:36:55.930Z,21.38
2017-08-31T00:38:06.266Z,21.28
2017-08-31T00:39:16.618Z,21.28
2017-08-31T00:40:26.330Z,21.21
2017-08-31T00:41:36.670Z,21.22
2017-08-31T00:42:46.698Z,21.08
2017-08-31T00:43:57.063Z,21.21
2017-08-31T00:45:07.094Z,21.12
2017-08-31T00:46:17.450Z,21.12
2017-08-31T00:47:27.465Z,21.15
2017-08-31T00:48:37.827Z,21.06
2017-08-31T00:49:48.220Z,21
2017-08-31T00:50:58.606Z,21.06
2017-08-31T00:52:08.946Z,21.03
2017-08-31T00:53:19.289Z,21.06
2017-08-31T00:54:29.627Z,21.03
2017-08-31T00:55:40.768Z,21.06
2017-08-31T00:56:50.844Z,21.06
2017-08-31T00:58:01.190Z,21.06
2017-08-31T00:59:11.562Z,20.91
2017-08-31T01:00:21.590Z,20.94
2017-08-31T01:01:31.942Z,20.94
2017-08-31T01:02:42.327Z,20.9
2017-08-31T01:03:52.672Z,20.97
2017-08-31T01:05:03.056Z,20.91
2017-08-31T01:06:13.094Z,20.98
2017-08-31T01:07:23.120Z,20.98
2017-08-31T01:08:33.482Z,20.97
2017-08-31T01:09:43.823Z,20.96
2017-08-31T01:10:53.847Z,20.94
2017-08-31T01:12:05.997Z,20.98
2017-08-31T01:13:16.624Z,20.94
2017-08-31T01:14:26.984Z,20.88
2017-08-31T01:15:37.315Z,20.78
2017-08-31T01:16:47.341Z,20.75
2017-08-31T01:17:57.378Z,20.71
2017-08-31T01:19:07.742Z,20.66
2017-08-31T01:20:18.099Z,20.66
2017-08-31T01:21:28.146Z,20.53
2017-08-31T01:22:38.491Z,20.48
2017-08-31T01:23:48.213Z,20.44
2017-08-31T01:24:58.553Z,20.49
2017-08-31T01:26:08.574Z,20.48
2017-08-31T01:27:18.647Z,20.51
2017-08-31T01:28:28.999Z,20.57
2017-08-31T01:29:39.057Z,20.48
2017-08-31T01:30:49.402Z,20.49
2017-08-31T01:31:59.427Z,20.57
2017-08-31T01:33:09.765Z,20.53
2017-08-31T01:34:20.097Z,20.67
2017-08-31T01:35:30.440Z,20.58
2017-08-31T01:36:40.791Z,20.49
2017-08-31T01:37:50.816Z,20.48
2017-08-31T01:39:00.258Z,20.46
2017-08-31T01:40:10.272Z,20.56
2017-08-31T01:41:20.627Z,20.57
2017-08-31T01:42:30.333Z,20.49
2017-08-31T01:43:40.684Z,20.54
2017-08-31T01:44:50.699Z,20.49
2017-08-31T01:46:00.743Z,20.51
2017-08-31T01:47:11.067Z,20.48
2017-08-31T01:48:21.422Z,20.53
2017-08-31T01:49:31.447Z,20.6
2017-08-31T01:50:41.172Z,20.56
2017-08-31T01:51:51.493Z,20.57
2017-08-31T01:53:01.523Z,20.49
2017-08-31T01:54:11.870Z,20.51
2017-08-31T01:55:22.246Z,20.48
2017-08-31T01:56:32.640Z,20.53
2017-08-31T01:57:42.660Z,20.48
2017-08-31T01:58:52.684Z,20.46
2017-08-31T02:00:03.024Z,20.48
2017-08-31T02:01:13.390Z,20.48
2017-08-31T02:02:23.782Z,20.42
2017-08-31T02:03:34.132Z,20.44
2017-08-31T02:04:44.473Z,20.41
2017-08-31T02:05:54.828Z,20.42
2017-08-31T02:07:05.178Z,20.44
2017-08-31T02:08:15.569Z,20.42
2017-08-31T02:09:25.909Z,20.44
2017-08-31T02:10:35.924Z,20.42
2017-08-31T02:11:46.264Z,20.42
2017-08-31T02:12:56.284Z,20.42
2017-08-31T02:14:06.677Z,20.44
2017-08-31T02:15:17.021Z,20.46
2017-08-31T02:16:27.361Z,20.48
2017-08-31T02:17:37.702Z,20.37
2017-08-31T02:18:48.041Z,20.37
2017-08-31T02:19:58.376Z,20.29
2017-08-31T02:21:08.719Z,20.29
2017-08-31T02:22:18.759Z,20.41
2017-08-31T02:23:28.781Z,20.35
2017-08-31T02:24:39.125Z,20.4
2017-08-31T02:25:49.144Z,20.29
2017-08-31T02:26:59.162Z,20.25
2017-08-31T02:28:09.498Z,20.27
2017-08-31T02:29:19.870Z,20.23
2017-08-31T02:30:29.897Z,20.25
2017-08-31T02:31:40.274Z,20.3
2017-08-31T02:32:50.289Z,20.32
2017-08-31T02:34:00.329Z,20.25
2017-08-31T02:35:10.688Z,20.22
2017-08-31T02:36:21.024Z,20.29
2017-08-31T02:37:31.418Z,20.2
2017-08-31T02:38:41.759Z,20.25
2017-08-31T02:39:52.101Z,20.19
2017-08-31T02:41:01.800Z,20.18
2017-08-31T02:42:12.192Z,20.16
2017-08-31T02:43:22.540Z,20.16
2017-08-31T02:44:32.874Z,20.22
2017-08-31T02:45:43.234Z,20.25
2017-08-31T02:46:53.270Z,20.22
2017-08-31T02:48:03.618Z,20.16
2017-08-31T02:49:14.076Z,20.27
2017-08-31T02:50:24.430Z,20.26
2017-08-31T02:51:34.788Z,20.22
2017-08-31T02:52:45.116Z,20.25
2017-08-31T02:53:55.161Z,20.22
2017-08-31T02:55:05.574Z,20.27
2017-08-31T02:56:15.911Z,20.26
2017-08-31T02:57:26.302Z,20.26
2017-08-31T02:58:36.646Z,20.29
2017-08-31T02:59:46.996Z,20.27
2017-08-31T03:00:57.401Z,20.34
2017-08-31T03:33:12.565Z,17.27
2017-08-31T03:34:22.889Z,17.21
2017-08-31T03:35:32.912Z,17.28
2017-08-31T03:36:43.251Z,17.18
2017-08-31T03:37:53.277Z,17.27
2017-08-31T03:39:03.657Z,17.31
2017-08-31T03:40:13.998Z,17.43
2017-08-31T03:41:24.016Z,17.54
2017-08-31T03:42:34.346Z,17.73
2017-08-31T03:43:44.693Z,17.83
2017-08-31T03:44:54.716Z,18.01
2017-08-31T03:46:05.065Z,18.16
2017-08-31T03:47:15.413Z,18.21
2017-08-31T03:48:25.761Z,18.27
2017-08-31T03:49:36.106Z,18.44
2017-08-31T03:50:45.851Z,18.5
2017-08-31T03:51:56.185Z,18.59
2017-08-31T03:53:06.540Z,18.78
2017-08-31T03:54:16.910Z,18.82
2017-08-31T03:55:27.254Z,18.96
2017-08-31T03:56:37.641Z,18.96
2017-08-31T03:57:47.988Z,19.12
2017-08-31T03:58:58.016Z,19.1
2017-08-31T04:00:07.716Z,19.2
2017-08-31T04:01:18.070Z,19.23
2017-08-31T04:02:28.461Z,19.28
2017-08-31T04:03:38.491Z,19.43
2017-08-31T04:04:49.077Z,19.37
2017-08-31T04:05:59.430Z,19.45
2017-08-31T04:07:09.761Z,19.49
2017-08-31T04:08:20.126Z,19.65
2017-08-31T04:09:29.832Z,19.72
2017-08-31T04:10:40.218Z,19.61
2017-08-31T04:11:50.572Z,19.64
2017-08-31T04:13:00.918Z,19.74
2017-08-31T04:14:11.259Z,19.78
2017-08-31T04:15:21.285Z,19.79
2017-08-31T04:16:31.309Z,19.85
2017-08-31T04:17:41.653Z,19.87
2017-08-31T04:18:52.007Z,19.98
2017-08-31T04:20:02.597Z,20.04
2017-08-31T04:21:12.632Z,20.15
2017-08-31T04:22:22.663Z,20.01
2017-08-31T04:23:32.371Z,20
2017-08-31T04:24:42.395Z,20.1
2017-08-31T04:25:52.793Z,20.11
2017-08-31T04:27:03.137Z,20.15
2017-08-31T04:28:13.470Z,20.26
2017-08-31T04:29:23.813Z,20.2
2017-08-31T04:30:33.835Z,20.29
2017-08-31T04:31:46.224Z,20.29
2017-08-31T04:32:56.580Z,20.56
2017-08-31T04:34:06.289Z,20.85
2017-08-31T04:35:16.654Z,21.22
2017-08-31T04:36:26.717Z,21.49
2017-08-31T04:37:37.050Z,21.7
2017-08-31T04:38:47.080Z,21.86
2017-08-31T04:39:57.118Z,22.04
2017-08-31T04:41:07.149Z,22.27
2017-08-31T04:42:17.489Z,22.34
2017-08-31T04:43:27.508Z,22.61
2017-08-31T04:44:37.870Z,22.75
2017-08-31T04:45:48.210Z,22.91
2017-08-31T04:46:58.659Z,23.15
2017-08-31T04:48:08.998Z,23.25
2017-08-31T04:49:19.411Z,23.34
2017-08-31T04:50:29.683Z,23.57
2017-08-31T04:51:40.095Z,23.56
2017-08-31T04:52:50.442Z,23.71
2017-08-31T04:54:00.789Z,23.85
2017-08-31T04:55:11.137Z,23.97
2017-08-31T04:56:21.502Z,24.02
2017-08-31T04:57:31.842Z,24.22
2017-08-31T04:58:42.177Z,24.3
2017-08-31T04:59:52.506Z,24.44
2017-08-31T05:01:04.129Z,24.49
2017-08-31T05:02:14.472Z,24.66
2017-08-31T05:03:24.490Z,24.7
2017-08-31T05:04:35.710Z,24.7
2017-08-31T05:05:46.056Z,24.82
2017-08-31T05:06:56.404Z,24.83
2017-08-31T05:08:06.454Z,24.85
2017-08-31T05:09:16.824Z,24.9
2017-08-31T05:10:27.202Z,25.08
2017-08-31T05:11:37.560Z,25.17
2017-08-31T05:12:47.901Z,25.19
2017-08-31T05:13:57.933Z,25.24
2017-08-31T05:15:08.283Z,25.29
2017-08-31T05:16:18.664Z,25.37
2017-08-31T05:17:28.745Z,25.48
2017-08-31T05:18:38.770Z,25.64
2017-08-31T05:19:49.122Z,25.75
2017-08-31T05:20:59.455Z,25.85
2017-08-31T05:22:09.796Z,25.88
2017-08-31T05:23:20.183Z,26.03
2017-08-31T05:24:30.235Z,26.16
2017-08-31T05:25:40.256Z,26.09
2017-08-31T05:26:49.962Z,25.84
2017-08-31T05:28:00.296Z,25.74
2017-08-31T05:29:10.628Z,25.59
2017-08-31T05:30:20.359Z,25.47
2017-08-31T05:31:30.376Z,25.38
2017-08-31T05:32:40.399Z,25.33
2017-08-31T05:33:50.754Z,25.12
2017-08-31T05:35:01.090Z,25.08
2017-08-31T05:36:11.444Z,25.15
2017-08-31T05:37:21.184Z,25.48
2017-08-31T05:38:31.531Z,25.79
2017-08-31T05:39:41.895Z,25.96
2017-08-31T05:40:52.254Z,26.17
2017-08-31T05:42:02.295Z,25.94
2017-08-31T05:43:12.639Z,25.67
2017-08-31T05:44:22.699Z,25.47
2017-08-31T05:45:33.081Z,25.27
2017-08-31T05:46:44.490Z,25
2017-08-31T05:47:56.787Z,25.02
2017-08-31T05:49:06.806Z,25
2017-08-31T05:50:17.163Z,24.86
2017-08-31T05:51:27.574Z,24.89
2017-08-31T05:52:37.930Z,25.04
2017-08-31T05:53:47.970Z,25.23
2017-08-31T05:54:58.331Z,25.26
2017-08-31T05:56:08.366Z,25.29
2017-08-31T05:57:18.757Z,25.09
2017-08-31T05:58:29.100Z,25.01
2017-08-31T05:59:38.822Z,24.9
2017-08-31T06:00:49.224Z,24.93
2017-08-31T06:01:59.567Z,25.12
2017-08-31T06:03:09.930Z,25.15
2017-08-31T06:04:20.274Z,25.19
2017-08-31T06:05:30.298Z,25.11
2017-08-31T06:06:40.649Z,25.04
2017-08-31T06:07:51.005Z,25.05
2017-08-31T06:09:01.098Z,25.05
2017-08-31T06:10:12.053Z,25.05
2017-08-31T06:11:22.092Z,25.12
2017-08-31T06:12:32.117Z,25.14
2017-08-31T06:13:42.159Z,25.15
2017-08-31T06:14:52.187Z,25.12
2017-08-31T06:16:02.532Z,25.07
2017-08-31T06:17:12.866Z,25.09
2017-08-31T06:18:22.901Z,24.94
2017-08-31T06:19:34.659Z,24.96
2017-08-31T06:20:45.009Z,24.93
2017-08-31T06:21:55.348Z,24.8
2017-08-31T06:23:05.693Z,24.8
2017-08-31T06:24:15.730Z,24.77
2017-08-31T06:25:25.770Z,24.78
2017-08-31T06:26:36.126Z,24.8
2017-08-31T06:27:46.140Z,24.82
2017-08-31T06:28:56.485Z,24.8
2017-08-31T06:30:06.521Z,24.85
2017-08-31T06:31:16.584Z,24.82
2017-08-31T06:32:26.904Z,24.85
2017-08-31T06:33:37.255Z,24.86
2017-08-31T06:34:47.621Z,24.9
2017-08-31T06:35:59.242Z,24.89
2017-08-31T06:37:09.630Z,24.93
2017-08-31T06:38:19.983Z,25.07
2017-08-31T06:39:30.325Z,25.17
2017-08-31T06:40:40.360Z,25.11
2017-08-31T06:41:50.705Z,25.19
2017-08-31T06:43:01.047Z,25.17
2017-08-31T06:44:11.445Z,25.15
2017-08-31T06:45:21.822Z,25.19
2017-08-31T06:46:32.168Z,25.12
2017-08-31T06:47:42.515Z,25.24
2017-08-31T06:48:55.917Z,25.3
2017-08-31T06:50:06.369Z,25.32
2017-08-31T06:51:16.715Z,25.37
2017-08-31T06:52:27.067Z,25.48
2017-08-31T06:53:37.414Z,25.56
2017-08-31T06:54:47.776Z,25.6
2017-08-31T06:55:57.483Z,25.66
2017-08-31T06:57:07.829Z,25.64
2017-08-31T06:58:18.180Z,25.75
2017-08-31T06:59:28.874Z,25.69
2017-08-31T07:00:39.216Z,25.81
2017-08-31T07:01:49.603Z,25.85
2017-08-31T07:02:59.325Z,25.82
2017-08-31T07:04:09.384Z,25.88
2017-08-31T07:05:21.142Z,25.96
2017-08-31T07:06:32.000Z,25.93
2017-08-31T07:07:42.020Z,25.96
2017-08-31T07:08:52.374Z,26.07
2017-08-31T07:10:02.725Z,26
2017-08-31T07:11:13.066Z,26.06
2017-08-31T07:12:23.423Z,26.09
2017-08-31T07:13:33.771Z,26.03
2017-08-31T07:14:44.112Z,26.06
2017-08-31T07:15:53.833Z,26
2017-08-31T07:17:04.194Z,26.12
2017-08-31T07:18:14.543Z,26.19
2017-08-31T07:19:24.886Z,26.2
2017-08-31T07:20:34.601Z,26.17
2017-08-31T07:21:44.979Z,26.2
2017-08-31T07:22:56.049Z,26.17
2017-08-31T07:24:06.402Z,26.17
2017-08-31T07:25:16.798Z,26.24
2017-08-31T07:26:27.171Z,26.3
2017-08-31T07:27:37.548Z,26.34
2017-08-31T07:28:47.664Z,26.39
2017-08-31T07:29:58.028Z,26.38
2017-08-31T07:31:08.125Z,26.44
2017-08-31T07:32:18.480Z,26.53
2017-08-31T07:33:29.192Z,26.56
2017-08-31T07:34:39.579Z,26.56
2017-08-31T07:35:49.650Z,26.42
2017-08-31T07:37:00.110Z,26.52
2017-08-31T07:38:10.452Z,26.57
2017-08-31T07:39:20.804Z,26.42
2017-08-31T07:40:30.832Z,26.6
2017-08-31T07:41:40.874Z,26.61
2017-08-31T07:42:51.286Z,26.6
2017-08-31T07:44:01.628Z,26.6
2017-08-31T07:45:11.688Z,26.75
2017-08-31T07:46:22.025Z,26.79
2017-08-31T07:47:32.373Z,26.78
2017-08-31T07:48:42.757Z,26.93
2017-08-31T07:49:52.815Z,26.94
2017-08-31T07:51:02.915Z,26.93
2017-08-31T07:52:13.270Z,27.08
2017-08-31T07:53:23.339Z,26.96
2017-08-31T07:54:33.712Z,26.99
2017-08-31T07:55:44.087Z,26.96
2017-08-31T07:56:54.497Z,27.09
2017-08-31T07:58:04.529Z,27.08
2017-08-31T07:59:14.683Z,27.18
2017-08-31T08:00:25.051Z,27.31
2017-08-31T08:01:35.413Z,27.38
2017-08-31T08:02:45.442Z,27.41
2017-08-31T08:03:55.473Z,27.62
2017-08-31T08:05:05.839Z,27.65
2017-08-31T08:06:16.201Z,27.65
2017-08-31T08:07:26.567Z,27.69
2017-08-31T08:08:36.918Z,27.76
2017-08-31T08:09:47.295Z,27.83
2017-08-31T08:10:57.341Z,27.86
2017-08-31T08:12:07.712Z,27.86
2017-08-31T08:13:18.061Z,27.84
2017-08-31T08:14:28.411Z,27.87
2017-08-31T08:15:38.754Z,27.83
2017-08-31T08:16:48.947Z,27.94
2017-08-31T08:17:59.292Z,27.98
2017-08-31T08:19:09.652Z,28.01
2017-08-31T08:20:19.678Z,28.05
2017-08-31T08:21:30.023Z,28.12
2017-08-31T08:22:40.449Z,28.14
2017-08-31T08:23:50.509Z,28.14
2017-08-31T08:25:00.897Z,28.2
2017-08-31T08:26:10.625Z,28.24
2017-08-31T08:27:20.993Z,28.36
2017-08-31T08:28:30.772Z,28.42
2017-08-31T08:29:41.137Z,28.48
2017-08-31T08:30:51.588Z,28.43
2017-08-31T08:32:01.642Z,28.39
2017-08-31T08:33:11.988Z,28.41
2017-08-31T08:34:22.834Z,28.39
2017-08-31T08:35:33.317Z,28.41
2017-08-31T08:36:43.037Z,28.48
2017-08-31T08:37:53.404Z,28.43
2017-08-31T08:39:03.755Z,28.45
2017-08-31T08:40:14.166Z,28.46
2017-08-31T08:41:24.218Z,28.54
2017-08-31T08:42:34.579Z,28.63
2017-08-31T08:43:44.971Z,28.65
2017-08-31T08:44:55.323Z,28.67
2017-08-31T08:46:05.729Z,28.78
2017-08-31T08:47:16.097Z,28.8
2017-08-31T08:48:26.485Z,28.8
2017-08-31T08:49:36.926Z,28.86
2017-08-31T08:50:47.298Z,28.94
2017-08-31T08:51:57.652Z,29.05
2017-08-31T08:53:08.015Z,29.1
2017-08-31T08:54:18.373Z,29.26
2017-08-31T08:55:28.745Z,29.35
2017-08-31T08:56:39.106Z,29.48
2017-08-31T08:57:49.186Z,29.4
2017-08-31T08:58:59.543Z,29.47
2017-08-31T09:00:09.573Z,29.52
2017-08-31T09:01:19.971Z,29.45
2017-08-31T09:02:30.330Z,29.45
2017-08-31T09:03:40.703Z,29.54
2017-08-31T09:04:51.062Z,29.69
2017-08-31T09:06:01.422Z,29.57
2017-08-31T09:07:11.799Z,29.66
2017-08-31T09:08:21.858Z,29.61
2017-08-31T09:09:32.228Z,29.67
2017-08-31T09:10:42.276Z,29.72
2017-08-31T09:11:52.630Z,29.77
2017-08-31T09:13:03.016Z,29.76
2017-08-31T09:14:13.465Z,29.84
2017-08-31T09:15:23.820Z,29.89
2017-08-31T09:16:34.183Z,29.92
2017-08-31T09:17:44.250Z,30.07
2017-08-31T09:18:54.299Z,30.16
2017-08-31T09:20:04.699Z,30.13
2017-08-31T09:21:15.312Z,30.24
2017-08-31T09:22:25.694Z,30.21
2017-08-31T09:23:36.080Z,30.14
2017-08-31T09:24:46.452Z,30.18
2017-08-31T09:25:56.875Z,30.19
2017-08-31T09:27:07.257Z,30.18
2017-08-31T09:28:17.629Z,30.24
2017-08-31T09:29:27.991Z,30.31
2017-08-31T09:30:38.389Z,30.28
2017-08-31T09:31:48.822Z,30.44
2017-08-31T09:32:59.154Z,30.49
2017-08-31T09:34:09.506Z,30.49
2017-08-31T09:35:19.873Z,30.59
2017-08-31T09:36:29.914Z,30.67
2017-08-31T09:37:40.287Z,30.85
2017-08-31T09:38:50.660Z,30.82
2017-08-31T09:40:01.016Z,30.91
2017-08-31T09:41:11.387Z,30.97
2017-08-31T09:42:21.104Z,31.07
2017-08-31T09:43:31.480Z,31.21
2017-08-31T09:44:41.817Z,31.21
2017-08-31T09:45:52.187Z,31.07
2017-08-31T09:47:01.910Z,31.1
2017-08-31T09:48:12.300Z,31.13
2017-08-31T09:49:22.698Z,31.03
2017-08-31T09:50:32.739Z,31.03
2017-08-31T09:51:43.119Z,31.19
2017-08-31T09:52:52.513Z,31.28
2017-08-31T09:54:02.892Z,31.26
2017-08-31T09:55:13.397Z,31.34
2017-08-31T09:56:23.776Z,31.36
2017-08-31T09:57:33.839Z,31.33
2017-08-31T09:58:43.865Z,31.43
2017-08-31T09:59:54.233Z,31.41
2017-08-31T10:01:04.435Z,31.43
2017-08-31T10:02:14.782Z,31.41
2017-08-31T10:03:25.145Z,31.45
2017-08-31T10:04:35.551Z,31.63
2017-08-31T10:05:45.599Z,31.63
2017-08-31T10:06:56.006Z,31.72
2017-08-31T10:08:06.365Z,31.78
2017-08-31T10:09:16.752Z,31.8
2017-08-31T10:10:27.117Z,31.91
2017-08-31T10:11:37.484Z,31.97
2017-08-31T10:12:47.922Z,32
2017-08-31T10:13:57.638Z,32
2017-08-31T10:15:08.000Z,32.06
2017-08-31T10:16:18.062Z,32.13
2017-08-31T10:17:28.475Z,32.19
2017-08-31T10:18:38.910Z,32.24
2017-08-31T10:19:49.292Z,32.25
2017-08-31T10:20:59.336Z,32.24
2017-08-31T10:22:09.388Z,32.25
2017-08-31T10:23:19.762Z,32.34
2017-08-31T10:24:30.140Z,32.27
2017-08-31T10:25:40.498Z,32.38
2017-08-31T10:26:50.856Z,32.49
2017-08-31T10:28:01.214Z,32.49
2017-08-31T10:29:11.591Z,32.52
2017-08-31T10:30:21.670Z,32.57
2017-08-31T10:31:32.047Z,32.53
2017-08-31T10:32:42.076Z,32.68
2017-08-31T10:33:52.438Z,32.74
2017-08-31T10:35:02.507Z,32.83
2017-08-31T10:36:12.558Z,32.84
2017-08-31T10:37:22.905Z,32.94
2017-08-31T10:38:32.942Z,32.93
2017-08-31T10:39:43.313Z,32.93
2017-08-31T10:40:53.683Z,32.96
2017-08-31T10:42:04.097Z,32.94
2017-08-31T10:43:14.445Z,33.08
2017-08-31T10:44:24.826Z,33.17
2017-08-31T10:45:35.192Z,33.21
2017-08-31T10:46:45.530Z,33.21
2017-08-31T10:47:55.909Z,33.26
2017-08-31T10:49:06.268Z,33.29
2017-08-31T10:50:16.629Z,33.37
2017-08-31T10:51:26.691Z,33.41
2017-08-31T10:52:37.032Z,33.5
2017-08-31T10:53:47.129Z,33.56
2017-08-31T10:54:57.192Z,33.58
2017-08-31T10:56:07.603Z,33.68
2017-08-31T10:57:17.955Z,33.73
2017-08-31T10:58:28.231Z,33.73
2017-08-31T10:59:39.393Z,33.66
2017-08-31T11:00:49.750Z,33.73
2017-08-31T11:02:00.115Z,33.66
2017-08-31T11:03:10.508Z,33.71
2017-08-31T11:04:20.880Z,33.87
2017-08-31T11:05:31.256Z,33.84
2017-08-31T11:06:41.612Z,33.92
2017-08-31T11:07:51.965Z,33.84
2017-08-31T11:09:02.331Z,33.87
2017-08-31T11:10:12.371Z,34.06
2017-08-31T11:11:22.775Z,34.05
2017-08-31T11:12:32.814Z,34.1
2017-08-31T11:13:43.184Z,34.17
2017-08-31T11:14:53.575Z,34.26
2017-08-31T11:16:03.622Z,34.33
2017-08-31T11:17:13.708Z,34.32
2017-08-31T11:18:24.074Z,34.43
2017-08-31T11:19:34.428Z,34.49
2017-08-31T11:20:44.465Z,34.48
2017-08-31T11:21:54.822Z,34.52
2017-08-31T11:23:05.251Z,34.54
2017-08-31T11:24:15.604Z,34.51
2017-08-31T11:25:25.648Z,34.67
2017-08-31T11:26:35.711Z,34.69
2017-08-31T11:27:46.761Z,34.84
2017-08-31T11:28:57.402Z,34.87
2017-08-31T11:30:08.489Z,34.87
2017-08-31T11:31:19.576Z,34.86
2017-08-31T11:32:30.066Z,35.02
2017-08-31T11:33:41.098Z,34.96
2017-08-31T11:34:51.984Z,34.94
2017-08-31T11:36:02.856Z,34.9
2017-08-31T11:37:13.369Z,34.89
2017-08-31T11:38:26.004Z,34.87
2017-08-31T11:39:36.365Z,34.9
2017-08-31T11:40:46.463Z,34.94
2017-08-31T11:41:56.506Z,35.08
2017-08-31T11:43:06.888Z,35.27
2017-08-31T11:44:16.924Z,35.34
2017-08-31T11:45:26.967Z,35.4
2017-08-31T11:46:37.406Z,35.47
2017-08-31T11:47:47.774Z,35.52
2017-08-31T11:48:58.145Z,35.61
2017-08-31T11:50:08.212Z,35.64
2017-08-31T11:51:18.576Z,35.64
2017-08-31T11:52:28.996Z,35.69
2017-08-31T11:53:39.385Z,35.79
2017-08-31T11:54:49.732Z,35.8
2017-08-31T11:56:00.092Z,35.82
2017-08-31T11:57:10.446Z,35.79
2017-08-31T11:58:20.527Z,35.79
2017-08-31T11:59:30.886Z,35.9
2017-08-31T12:00:41.268Z,35.95
2017-08-31T12:01:51.622Z,35.99
2017-08-31T12:03:01.987Z,35.99
2017-08-31T12:04:12.831Z,35.9
2017-08-31T12:05:23.183Z,35.92
2017-08-31T12:06:33.528Z,35.92
2017-08-31T12:07:43.587Z,36.12
2017-08-31T12:08:53.651Z,36.08
2017-08-31T12:10:04.003Z,36.21
2017-08-31T12:11:14.056Z,36.24
2017-08-31T12:12:24.418Z,36.06
2017-08-31T12:13:34.510Z,36.06
2017-08-31T12:14:44.886Z,36.09
2017-08-31T12:15:55.248Z,36.08
2017-08-31T12:17:05.275Z,36.04
2017-08-31T12:18:14.978Z,36.06
2017-08-31T12:19:25.503Z,36.17
2017-08-31T12:20:36.412Z,36.21
2017-08-31T12:21:47.142Z,36.24
2017-08-31T12:22:57.239Z,36.25
2017-08-31T12:24:07.612Z,36.28
2017-08-31T12:25:18.047Z,36.25
2017-08-31T12:26:28.436Z,36.22
2017-08-31T12:27:38.546Z,36.19
2017-08-31T12:28:48.916Z,36.09
2017-08-31T12:29:59.267Z,36.08
2017-08-31T12:31:09.646Z,36.08
2017-08-31T12:32:20.084Z,36.12
2017-08-31T12:33:30.660Z,36.19
2017-08-31T12:34:40.836Z,36.22
2017-08-31T12:35:51.182Z,36.12
2017-08-31T12:37:01.571Z,36.02
2017-08-31T12:38:11.592Z,36.15
2017-08-31T12:39:21.798Z,35.98
2017-08-31T12:40:31.842Z,36.08
2017-08-31T12:41:41.880Z,36.09
2017-08-31T12:42:51.909Z,36.08
2017-08-31T12:44:02.304Z,36.09
2017-08-31T12:45:12.363Z,36.12
2017-08-31T12:46:22.720Z,36.17
2017-08-31T12:47:33.086Z,36.18
2017-08-31T12:48:42.829Z,36.33
2017-08-31T12:49:53.200Z,36.34
2017-08-31T12:51:03.566Z,36.36
2017-08-31T12:52:13.618Z,36.39
2017-08-31T12:53:23.670Z,36.44
2017-08-31T12:54:34.020Z,36.44
2017-08-31T12:55:44.436Z,36.4
2017-08-31T12:56:54.815Z,36.39
2017-08-31T12:58:05.190Z,36.37
2017-08-31T12:59:15.562Z,36.4
2017-08-31T13:00:25.927Z,36.39
2017-08-31T13:01:35.962Z,36.36
2017-08-31T13:02:46.403Z,36.37
2017-08-31T13:03:56.751Z,36.21
2017-08-31T13:05:07.153Z,36.32
2017-08-31T13:06:18.762Z,36.24
2017-08-31T13:07:28.855Z,36.17
2017-08-31T13:08:39.240Z,36.06
2017-08-31T13:09:49.626Z,36.17
2017-08-31T13:11:00.012Z,36.09
2017-08-31T13:12:10.071Z,36.06
2017-08-31T13:13:21.470Z,36.05
2017-08-31T13:14:31.839Z,36.22
2017-08-31T13:15:41.869Z,36.24
2017-08-31T13:16:52.233Z,36.25
2017-08-31T13:18:02.278Z,36.22
2017-08-31T13:19:12.010Z,36.06
2017-08-31T13:20:22.052Z,36.19
2017-08-31T13:21:32.093Z,36.22
2017-08-31T13:22:42.135Z,36.22
2017-08-31T13:23:52.510Z,36.12
2017-08-31T13:25:02.591Z,36.05
2017-08-31T13:26:12.951Z,36.09
2017-08-31T13:27:23.305Z,36.14
2017-08-31T13:28:33.706Z,36.04
2017-08-31T13:29:44.066Z,36.08
2017-08-31T13:30:54.467Z,36.21
2017-08-31T13:32:04.842Z,36.22
2017-08-31T13:33:14.560Z,36.28
2017-08-31T13:34:24.937Z,36.21
2017-08-31T13:35:36.229Z,36.18
2017-08-31T13:36:48.351Z,36.09
2017-08-31T13:37:58.705Z,36.12
2017-08-31T13:39:09.086Z,36.05
2017-08-31T13:40:19.114Z,36.15
2017-08-31T13:41:28.858Z,36.21
2017-08-31T13:42:38.924Z,36.22
2017-08-31T13:43:49.323Z,36.32
2017-08-31T13:44:59.356Z,36.33
2017-08-31T13:46:09.712Z,36.34
2017-08-31T13:47:20.062Z,36.43
2017-08-31T13:48:30.445Z,36.55
2017-08-31T13:49:40.818Z,36.61
2017-08-31T13:50:51.203Z,36.63
2017-08-31T13:52:01.563Z,36.59
2017-08-31T13:53:12.686Z,36.56
2017-08-31T13:54:23.049Z,36.61
2017-08-31T13:55:33.459Z,36.62
2017-08-31T13:56:43.219Z,36.62
2017-08-31T13:57:53.278Z,36.62
2017-08-31T13:59:03.651Z,36.55
2017-08-31T14:00:13.706Z,36.47
2017-08-31T14:01:24.465Z,36.43
2017-08-31T14:02:42.914Z,36.39
2017-08-31T14:03:58.156Z,36.34
2017-08-31T14:05:08.229Z,36.34
2017-08-31T14:06:18.798Z,36.26
2017-08-31T14:07:28.914Z,36.32
2017-08-31T14:08:39.059Z,36.41
2017-08-31T14:09:49.429Z,36.4
2017-08-31T14:11:00.011Z,36.37
2017-08-31T14:12:10.623Z,36.33
2017-08-31T14:13:20.809Z,36.26
2017-08-31T14:14:30.985Z,36.32
2017-08-31T14:15:40.699Z,36.22
2017-08-31T14:16:51.073Z,36.25
2017-08-31T14:18:01.098Z,36.21
2017-08-31T14:19:10.844Z,36.25
2017-08-31T14:20:20.866Z,36.32
2017-08-31T14:21:31.215Z,36.28
2017-08-31T14:22:41.257Z,36.28
2017-08-31T14:23:51.683Z,36.24
2017-08-31T14:25:01.820Z,36.32
2017-08-31T14:26:11.861Z,36.33
2017-08-31T14:27:22.224Z,36.26
2017-08-31T14:28:32.591Z,36.36
2017-08-31T14:29:43.099Z,36.32
2017-08-31T14:30:53.154Z,36.26
2017-08-31T14:32:03.532Z,36.26
2017-08-31T14:33:13.588Z,36.32
2017-08-31T14:34:23.968Z,36.32
2017-08-31T14:35:34.316Z,36.37
2017-08-31T14:36:44.682Z,36.32
2017-08-31T14:37:54.733Z,36.32
2017-08-31T14:39:04.780Z,36.19
2017-08-31T14:40:15.161Z,36.17
2017-08-31T14:41:25.262Z,36.08
2017-08-31T14:42:35.632Z,35.94
2017-08-31T14:43:45.669Z,35.95
2017-08-31T14:44:56.016Z,35.95
2017-08-31T14:46:06.110Z,35.87
2017-08-31T14:47:16.460Z,35.82
2017-08-31T14:48:26.519Z,35.89
2017-08-31T14:49:36.568Z,35.94
2017-08-31T14:50:47.749Z,35.86
2017-08-31T14:51:58.104Z,35.82
2017-08-31T14:53:08.148Z,35.8
2017-08-31T14:54:17.255Z,35.72
2017-08-31T14:55:27.306Z,35.67
2017-08-31T14:56:37.684Z,35.62
2017-08-31T14:57:48.059Z,35.67
2017-08-31T14:58:58.417Z,35.71
2017-08-31T15:00:08.825Z,35.68
2017-08-31T15:01:19.190Z,35.65
2017-08-31T15:02:29.546Z,35.72
2017-08-31T15:03:39.908Z,35.72
2017-08-31T15:04:50.275Z,35.65
2017-08-31T15:06:00.675Z,35.68
2017-08-31T15:07:10.753Z,35.67
2017-08-31T15:08:21.131Z,35.61
2017-08-31T15:09:31.190Z,35.53
2017-08-31T15:10:42.012Z,35.52
2017-08-31T15:11:52.444Z,35.53
2017-08-31T15:13:02.484Z,35.46
2017-08-31T15:14:12.854Z,35.43
2017-08-31T15:15:22.577Z,35.47
2017-08-31T15:16:32.938Z,35.39
2017-08-31T15:17:43.314Z,35.49
2017-08-31T15:18:55.242Z,35.38
2017-08-31T15:20:05.300Z,35.33
2017-08-31T15:21:15.347Z,35.34
2017-08-31T15:22:25.739Z,35.31
2017-08-31T15:23:36.137Z,35.33
2017-08-31T15:24:46.508Z,35.26
2017-08-31T15:25:56.863Z,35.33
2017-08-31T15:27:08.628Z,35.2
2017-08-31T15:28:19.556Z,35.26
2017-08-31T15:29:29.969Z,35.31
2017-08-31T15:30:40.032Z,35.27
2017-08-31T15:31:50.096Z,35.26
2017-08-31T15:33:00.481Z,35.2
2017-08-31T15:34:10.216Z,35.13
2017-08-31T15:35:20.635Z,35.11
2017-08-31T15:36:31.012Z,35.06
2017-08-31T15:37:41.388Z,35.06
2017-08-31T15:38:51.742Z,34.96
2017-08-31T15:40:02.094Z,34.86